Time;durP1;ratioP1;P1;durP2;ratioP2;P2;SDS_P1;SDS_P2;PMS_P1;PMS_P2;Temp;Humidity;BMP_temperature;BMP_pressure;BME280_temperature;BME280_humidity;BME280_pressure;Samples;Min_cycle;Max_cycle;Signal;HPM_P1;HPM_P2
2021/06/25 04:15:57;;;;;;;0.40;0.40;;;17.40;99.90;;;;;;5640663;23;20234;-77
2021/06/25 04:18:25;;;;;;;0.40;0.40;;;17.50;99.90;;;;;;4921465;29;20229;-76
2021/06/25 04:20:54;;;;;;;0.40;0.40;;;17.50;99.90;;;;;;4922040;29;20211;-77
2021/06/25 04:23:22;;;;;;;0.40;0.40;;;17.50;99.90;;;;;;4919772;29;20243;-80
2021/06/25 04:25:50;;;;;;;0.40;0.40;;;17.50;99.90;;;;;;4918639;29;20695;-78
2021/06/25 04:28:18;;;;;;;0.40;0.40;;;17.50;99.90;;;;;;4919425;29;20261;-78
2021/06/25 04:30:46;;;;;;;0.40;0.40;;;17.40;99.90;;;;;;4918730;29;20219;-78
2021/06/25 04:33:15;;;;;;;0.40;0.40;;;17.30;99.90;;;;;;4900298;29;20207;-83
2021/06/25 04:35:44;;;;;;;0.40;0.40;;;17.20;99.90;;;;;;4900420;29;20372;-81
2021/06/25 04:38:12;;;;;;;0.40;0.40;;;17.10;99.90;;;;;;4901161;29;20214;-84
2021/06/25 04:40:42;;;;;;;0.60;0.60;;;17.00;99.90;;;;;;4900919;29;20857;-85
2021/06/25 04:43:13;;;;;;;0.40;0.40;;;17.00;99.90;;;;;;4901975;29;20231;-82
2021/06/25 04:45:42;;;;;;;0.40;0.40;;;17.00;99.90;;;;;;4902429;29;20223;-83
2021/06/25 04:48:11;;;;;;;0.40;0.40;;;16.90;99.90;;;;;;4900976;29;20218;-84
2021/06/25 04:50:41;;;;;;;0.40;0.40;;;16.80;99.90;;;;;;4900853;29;20206;-85
2021/06/25 04:53:09;;;;;;;0.40;0.40;;;16.60;99.90;;;;;;4901099;29;20211;-82
2021/06/25 04:55:42;;;;;;;0.50;0.50;;;16.70;99.90;;;;;;4902817;29;20224;-83
2021/06/25 04:58:11;;;;;;;0.40;0.40;;;16.70;99.90;;;;;;4901138;29;20547;-82
2021/06/25 05:00:39;;;;;;;0.40;0.40;;;16.90;99.90;;;;;;4899695;29;20208;-82
2021/06/25 05:03:07;;;;;;;0.40;0.40;;;17.00;99.90;;;;;;4898661;29;20184;-81
2021/06/25 05:05:37;;;;;;;0.40;0.40;;;17.00;99.90;;;;;;4896397;29;20662;-80
2021/06/25 05:08:07;;;;;;;0.40;0.40;;;17.00;99.90;;;;;;4897916;29;20263;-82
2021/06/25 05:10:35;;;;;;;0.50;0.50;;;16.90;99.90;;;;;;4899167;29;20267;-81
2021/06/25 05:13:03;;;;;;;0.40;0.40;;;17.00;99.90;;;;;;4899113;29;20235;-81
2021/06/25 05:15:32;;;;;;;0.40;0.40;;;17.00;99.90;;;;;;4898550;29;20254;-81
2021/06/25 05:18:11;;;;;;;0.40;0.40;;;17.10;99.90;;;;;;4898239;29;20692;-81
2021/06/25 05:20:59;;;;;;;0.40;0.40;;;17.60;99.90;;;;;;4922876;29;20187;-78
2021/06/25 05:23:29;;;;;;;0.40;0.40;;;17.00;99.90;;;;;;4922133;29;20229;-77
2021/06/25 05:25:57;;;;;;;0.50;0.50;;;16.90;99.90;;;;;;4922573;29;20191;-78
2021/06/25 05:28:25;;;;;;;0.50;0.50;;;17.00;99.90;;;;;;4922981;29;20187;-78
2021/06/25 05:30:53;;;;;;;0.40;0.40;;;16.90;99.90;;;;;;4909556;29;20231;-81
2021/06/25 05:33:21;;;;;;;0.50;0.50;;;17.00;99.90;;;;;;4900180;29;20647;-82
2021/06/25 05:35:49;;;;;;;0.50;0.50;;;16.90;99.90;;;;;;4899619;29;20223;-81
2021/06/25 05:38:17;;;;;;;0.60;0.60;;;16.70;99.90;;;;;;4899814;29;20608;-81
2021/06/25 05:40:46;;;;;;;0.40;0.40;;;16.70;99.90;;;;;;4899601;29;20591;-81
2021/06/25 05:43:14;;;;;;;0.40;0.40;;;16.80;99.90;;;;;;4899774;29;20262;-80
2021/06/25 05:45:42;;;;;;;0.50;0.50;;;16.90;99.90;;;;;;4899431;29;20227;-79
2021/06/25 05:48:10;;;;;;;0.40;0.40;;;17.10;99.90;;;;;;4899542;29;20561;-80
2021/06/25 05:50:39;;;;;;;0.40;0.40;;;16.90;99.90;;;;;;4899818;29;20207;-80
2021/06/25 05:53:07;;;;;;;0.40;0.40;;;16.90;99.90;;;;;;4899300;29;20207;-81
2021/06/25 05:55:35;;;;;;;0.40;0.40;;;17.10;99.90;;;;;;4899609;29;20259;-81
2021/06/25 05:58:04;;;;;;;0.50;0.50;;;17.20;99.90;;;;;;4899353;29;20287;-81
2021/06/25 12:02:22;;;;;;;0.30;0.30;;;21.90;99.90;;;;;;5023473;23;20719;-81
2021/06/25 12:04:51;;;;;;;0.30;0.30;;;21.90;99.90;;;;;;4922040;29;20202;-81
2021/06/25 12:07:20;;;;;;;0.20;0.20;;;21.90;99.90;;;;;;4921572;29;20203;-81
2021/06/25 12:09:51;;;;;;;0.22;0.22;;;22.10;99.90;;;;;;4921782;29;20668;-81
2021/06/25 12:12:22;;;;;;;0.28;0.28;;;22.30;99.90;;;;;;4920815;29;20568;-81
2021/06/25 12:14:52;;;;;;;0.20;0.20;;;22.50;99.90;;;;;;4921204;29;20197;-81
2021/06/25 12:17:21;;;;;;;0.20;0.20;;;22.90;99.90;;;;;;4939409;23;20281;-74
2021/06/25 12:19:59;;;;;;;0.30;0.30;;;23.60;99.90;;;;;;4918138;29;20281;-74
2021/06/25 12:22:27;;;;;;;0.20;0.20;;;23.60;99.90;;;;;;4917721;29;20576;-74
2021/06/25 12:24:57;;;;;;;0.20;0.20;;;23.60;99.90;;;;;;4917913;29;20628;-74
2021/06/25 12:27:35;;;;;;;0.30;0.30;;;23.50;99.90;;;;;;4917425;29;20265;-74
2021/06/25 12:30:09;;;;;;;0.30;0.30;;;23.20;99.90;;;;;;4917965;29;20718;-74
2021/06/25 12:32:37;;;;;;;0.20;0.20;;;23.20;99.90;;;;;;4917634;29;20731;-74
2021/06/25 12:35:07;;;;;;;0.20;0.20;;;23.20;99.90;;;;;;4917901;29;20242;-75
2021/06/25 12:37:53;;;;;;;0.30;0.30;;;23.30;99.90;;;;;;4917621;29;20372;-74
2021/06/25 12:40:47;;;;;;;0.30;0.30;;;23.40;99.90;;;;;;4917976;29;20187;-74
2021/06/25 12:43:17;;;;;;;0.30;0.30;;;23.80;99.90;;;;;;4917659;29;20249;-74
2021/06/25 12:45:47;;;;;;;0.20;0.20;;;24.40;99.90;;;;;;4917355;29;20226;-75
2021/06/25 12:48:18;;;;;;;0.20;0.20;;;25.60;99.90;;;;;;4917784;29;20191;-75
2021/06/25 12:50:50;;;;;;;0.20;0.20;;;25.60;99.90;;;;;;4917412;29;20230;-74
2021/06/25 12:53:22;;;;;;;0.20;0.20;;;25.90;99.90;;;;;;4917721;29;20198;-75
2021/06/25 12:55:51;;;;;;;0.20;0.20;;;26.40;99.90;;;;;;4917125;29;20270;-75
2021/06/25 12:58:22;;;;;;;0.20;0.20;;;26.80;99.90;;;;;;4917561;29;20286;-75
2021/06/25 13:00:58;;;;;;;0.20;0.20;;;27.80;99.90;;;;;;4917123;29;20207;-75
2021/06/25 13:03:27;;;;;;;0.20;0.20;;;27.80;99.90;;;;;;4917178;29;20695;-74
2021/06/25 13:05:57;;;;;;;0.20;0.20;;;27.90;97.60;;;;;;4917014;29;20254;-75
2021/06/25 13:08:27;;;;;;;0.20;0.20;;;28.60;99.90;;;;;;4917270;29;20587;-74
2021/06/25 13:10:57;;;;;;;0.20;0.20;;;29.10;95.80;;;;;;4916988;29;20222;-74
2021/06/25 13:13:28;;;;;;;0.10;0.10;;;28.80;93.40;;;;;;4917329;29;20274;-74
2021/06/25 13:15:59;;;;;;;0.20;0.20;;;27.20;99.90;;;;;;4916481;29;20294;-74
2021/06/25 13:18:29;;;;;;;0.20;0.20;;;27.40;97.40;;;;;;4917099;29;20218;-74
2021/06/25 13:21:41;;;;;;;0.20;0.20;;;27.60;96.90;;;;;;4916822;29;20258;-74
2021/06/25 13:24:34;;;;;;;0.20;0.20;;;29.60;99.90;;;;;;4894416;29;20195;-74
2021/06/25 13:27:06;;;;;;;0.10;0.10;;;29.30;93.80;;;;;;4901791;29;20253;-74
2021/06/25 13:29:47;;;;;;;0.20;0.20;;;28.90;93.40;;;;;;4897114;29;20215;-74
2021/06/25 13:32:17;;;;;;;0.10;0.10;;;28.50;93.80;;;;;;4903263;29;20203;-74
2021/06/25 13:35:04;;;;;;;0.20;0.20;;;27.70;94.50;;;;;;4908183;29;20261;-74
2021/06/25 13:37:48;;;;;;;0.20;0.20;;;27.40;94.90;;;;;;4905155;29;20315;-74
2021/06/25 13:40:22;;;;;;;0.20;0.20;;;27.20;99.10;;;;;;4906427;29;20199;-74
2021/06/25 13:43:12;;;;;;;0.20;0.20;;;27.60;94.30;;;;;;4916642;29;20217;-74
2021/06/25 13:45:42;;;;;;;0.20;0.20;;;28.00;92.60;;;;;;4917830;29;20290;-78
2021/06/25 13:48:18;;;;;;;0.20;0.20;;;28.70;93.50;;;;;;4915241;29;20226;-78
2021/06/25 13:50:47;;;;;;;0.10;0.10;;;;;;;;;;4902619;29;20653;-78
2021/06/25 13:53:35;;;;;;;0.10;0.10;;;29.70;99.90;;;;;;4901928;29;20234;-77
2021/06/25 13:56:06;;;;;;;0.10;0.10;;;29.20;91.20;;;;;;4901722;29;20231;-76
2021/06/25 13:58:49;;;;;;;0.20;0.20;;;29.20;90.90;;;;;;4906378;29;20226;-77
2021/06/25 14:01:19;;;;;;;0.20;0.20;;;28.90;90.90;;;;;;4898918;29;20222;-76
2021/06/25 14:03:54;;;;;;;0.20;0.20;;;28.40;90.00;;;;;;4906676;29;20672;-76
2021/06/25 14:06:22;;;;;;;0.20;0.20;;;28.10;90.30;;;;;;4902956;29;20725;-77
2021/06/25 14:08:51;;;;;;;0.20;0.20;;;28.10;89.50;;;;;;4905031;29;20246;-77
2021/06/25 14:11:21;;;;;;;0.20;0.20;;;27.90;90.20;;;;;;4906656;29;20250;-75
2021/06/25 14:13:52;;;;;;;0.20;0.20;;;27.40;91.90;;;;;;4905194;29;20880;-77
2021/06/25 14:16:22;;;;;;;0.20;0.20;;;27.20;92.60;;;;;;4904272;29;20235;-77
2021/06/25 14:18:51;;;;;;;0.20;0.20;;;27.10;95.10;;;;;;4906982;29;20307;-77
2021/06/25 14:21:21;;;;;;;0.20;0.20;;;27.00;93.50;;;;;;4906201;29;20203;-77
2021/06/25 14:23:52;;;;;;;0.20;0.20;;;26.80;92.40;;;;;;4903671;29;20231;-76
2021/06/25 14:26:21;;;;;;;0.20;0.20;;;26.80;94.30;;;;;;4906164;29;20220;-77
2021/06/25 14:28:49;;;;;;;0.20;0.20;;;26.50;93.10;;;;;;4906771;29;20190;-78
2021/06/25 14:31:18;;;;;;;0.20;0.20;;;26.20;93.70;;;;;;4910146;29;20876;-77
2021/06/25 14:33:46;;;;;;;0.20;0.20;;;26.20;94.00;;;;;;4906107;29;20214;-76
2021/06/25 14:36:14;;;;;;;0.20;0.20;;;26.10;95.60;;;;;;4901886;29;20219;-76
2021/06/25 14:38:43;;;;;;;0.20;0.20;;;26.10;92.60;;;;;;4909160;29;20224;-77
2021/06/25 14:41:12;;;;;;;0.20;0.20;;;26.20;93.20;;;;;;4914154;29;20696;-78
2021/06/25 14:43:40;;;;;;;0.20;0.20;;;26.50;93.20;;;;;;4913805;29;20211;-78
2021/06/25 14:46:08;;;;;;;0.10;0.10;;;26.40;92.60;;;;;;4912470;29;20251;-77
2021/06/25 14:48:36;;;;;;;0.20;0.20;;;26.20;92.00;;;;;;4908589;29;20230;-78
2021/06/25 14:51:04;;;;;;;0.20;0.20;;;26.10;94.00;;;;;;4912920;29;20222;-78
2021/06/25 14:53:32;;;;;;;0.20;0.20;;;26.00;92.40;;;;;;4912569;29;20228;-77
2021/06/25 14:56:02;;;;;;;0.20;0.20;;;25.90;95.10;;;;;;4914196;29;20222;-77
2021/06/25 14:58:31;;;;;;;0.20;0.20;;;25.80;94.90;;;;;;4914577;29;20262;-77
2021/06/25 15:01:00;;;;;;;0.20;0.20;;;25.70;95.10;;;;;;4916518;29;20206;-78
2021/06/25 15:03:28;;;;;;;0.20;0.20;;;25.60;96.00;;;;;;4911220;29;20208;-78
2021/06/25 15:05:56;;;;;;;0.20;0.20;;;25.30;94.60;;;;;;4917109;29;20230;-77
2021/06/25 15:08:23;;;;;;;0.20;0.20;;;25.20;95.90;;;;;;4914444;29;20728;-76
2021/06/25 15:10:52;;;;;;;0.20;0.20;;;;;;;;;;4907088;29;20203;-78
2021/06/25 15:13:20;;;;;;;0.20;0.20;;;25.20;96.30;;;;;;4920728;29;20206;-78
2021/06/25 15:15:50;;;;;;;0.20;0.20;;;25.20;96.00;;;;;;4914755;29;20287;-77
2021/06/25 15:18:18;;;;;;;0.20;0.20;;;25.10;95.70;;;;;;4916937;29;20200;-77
2021/06/25 15:20:48;;;;;;;0.20;0.20;;;25.10;95.40;;;;;;4908699;29;20705;-78
2021/06/25 15:23:16;;;;;;;0.20;0.20;;;25.30;97.40;;;;;;4902453;29;20203;-78
2021/06/25 15:25:44;;;;;;;0.20;0.20;;;25.40;95.70;;;;;;4919507;29;20227;-79
2021/06/25 15:28:13;;;;;;;0.20;0.20;;;25.20;94.20;;;;;;4918653;29;20250;-79
2021/06/25 15:30:41;;;;;;;0.20;0.20;;;25.20;94.00;;;;;;4921052;29;20200;-78
2021/06/25 15:33:11;;;;;;;0.20;0.20;;;25.10;93.60;;;;;;4925127;29;20257;-77
2021/06/25 15:35:39;;;;;;;0.20;0.20;;;25.20;95.80;;;;;;4919116;29;20616;-76
2021/06/25 15:38:08;;;;;;;0.20;0.20;;;25.10;94.30;;;;;;4928137;29;20206;-77
2021/06/25 15:40:38;;;;;;;0.20;0.20;;;25.10;94.70;;;;;;4931858;29;20231;-77
2021/06/25 15:43:06;;;;;;;0.20;0.20;;;25.00;94.90;;;;;;4929755;29;20210;-74
2021/06/25 15:45:34;;;;;;;0.20;0.20;;;25.00;95.00;;;;;;4926028;29;20226;-77
2021/06/25 15:48:02;;;;;;;0.20;0.20;;;24.90;95.90;;;;;;4925233;29;20214;-78
2021/06/25 15:50:31;;;;;;;0.20;0.20;;;24.90;94.00;;;;;;4923581;29;20597;-78
2021/06/25 15:53:00;;;;;;;0.20;0.20;;;24.90;94.80;;;;;;4917177;29;20688;-76
2021/06/25 15:55:28;;;;;;;0.20;0.20;;;24.90;99.70;;;;;;4903940;29;20207;-78
2021/06/25 15:57:56;;;;;;;0.20;0.20;;;24.80;94.50;;;;;;4904906;29;20211;-79
2021/06/25 16:00:23;;;;;;;0.20;0.20;;;24.80;94.70;;;;;;4912133;29;20219;-79
2021/06/25 16:02:51;;;;;;;0.20;0.20;;;24.90;94.30;;;;;;4919530;29;20203;-78
2021/06/25 16:05:19;;;;;;;0.20;0.20;;;24.70;99.90;;;;;;4911026;29;20208;-77
2021/06/25 16:07:49;;;;;;;0.20;0.20;;;24.70;95.60;;;;;;4903400;29;20223;-78
2021/06/25 16:10:20;;;;;;;0.20;0.20;;;;;;;;;;4904502;29;20208;-77
2021/06/25 16:12:48;;;;;;;0.20;0.20;;;25.00;96.80;;;;;;4911054;29;20203;-77
2021/06/25 16:15:16;;;;;;;0.20;0.20;;;25.40;99.90;;;;;;4917817;29;20214;-76
2021/06/25 16:17:44;;;;;;;0.20;0.20;;;25.40;95.80;;;;;;4929889;29;20210;-79
2021/06/25 16:20:13;;;;;;;0.20;0.20;;;25.40;94.00;;;;;;4933613;29;20248;-78
2021/06/25 16:22:41;;;;;;;0.20;0.20;;;25.30;93.80;;;;;;4931896;29;20735;-77
2021/06/25 16:25:12;;;;;;;0.20;0.20;;;25.10;94.10;;;;;;4933903;29;20207;-77
2021/06/25 16:27:40;;;;;;;0.20;0.20;;;24.90;99.90;;;;;;4936812;29;20202;-79
2021/06/25 16:30:09;;;;;;;0.20;0.20;;;24.80;94.90;;;;;;4940594;29;20210;-78
2021/06/25 16:32:36;;;;;;;0.20;0.20;;;24.80;95.20;;;;;;4940647;29;20209;-78
2021/06/25 16:35:06;;;;;;;0.20;0.20;;;24.70;95.60;;;;;;4940974;29;20206;-78
2021/06/25 16:37:34;;;;;;;0.20;0.20;;;24.70;96.50;;;;;;4942456;29;20222;-79
2021/06/25 16:40:02;;;;;;;0.20;0.20;;;24.70;96.00;;;;;;4936834;29;20219;-78
2021/06/25 16:42:31;;;;;;;0.20;0.20;;;24.70;96.40;;;;;;4920430;29;20239;-79
2021/06/25 16:44:59;;;;;;;0.20;0.20;;;24.80;97.10;;;;;;4918476;29;20202;-77
2021/06/25 16:47:27;;;;;;;0.20;0.20;;;24.80;95.50;;;;;;4917665;29;20227;-76
2021/06/25 16:49:55;;;;;;;0.20;0.20;;;24.70;95.90;;;;;;4917197;29;20206;-76
2021/06/25 16:52:23;;;;;;;0.20;0.20;;;24.70;96.30;;;;;;4918571;29;20676;-79
2021/06/25 16:54:51;;;;;;;0.20;0.20;;;24.60;96.50;;;;;;4918925;29;20202;-79
2021/06/25 16:57:19;;;;;;;0.20;0.20;;;24.50;96.30;;;;;;4919405;29;20230;-79
2021/06/25 16:59:48;;;;;;;0.20;0.20;;;24.30;95.90;;;;;;4918699;29;20226;-77
2021/06/25 17:02:16;;;;;;;0.20;0.20;;;24.30;96.20;;;;;;4917306;29;20720;-77
2021/06/25 17:04:44;;;;;;;0.20;0.20;;;24.20;96.10;;;;;;4917100;29;20202;-76
2021/06/25 17:07:12;;;;;;;0.20;0.20;;;;;;;;;;4916861;29;20236;-76
2021/06/25 17:09:40;;;;;;;0.20;0.20;;;24.10;95.70;;;;;;4909960;29;20255;-77
2021/06/25 17:12:09;;;;;;;0.30;0.30;;;24.00;97.20;;;;;;4909766;29;20241;-76
2021/06/25 17:14:37;;;;;;;0.20;0.20;;;23.80;96.80;;;;;;4911933;29;20202;-75
2021/06/25 17:17:06;;;;;;;0.20;0.20;;;23.70;97.10;;;;;;4911184;29;20227;-74
2021/06/25 17:19:34;;;;;;;0.20;0.20;;;23.70;97.90;;;;;;4911099;29;20255;-75
2021/06/25 17:22:02;;;;;;;0.20;0.20;;;23.70;98.20;;;;;;4913583;29;20211;-76
2021/06/25 17:24:30;;;;;;;0.20;0.20;;;23.70;98.10;;;;;;4911475;29;20199;-77
2021/06/25 17:26:58;;;;;;;0.20;0.20;;;23.50;98.10;;;;;;4911834;29;20286;-77
2021/06/25 17:29:26;;;;;;;0.20;0.20;;;23.40;99.40;;;;;;4900285;29;20341;-77
2021/06/25 17:31:54;;;;;;;0.20;0.20;;;23.20;99.90;;;;;;4900919;29;20665;-75
2021/06/25 17:34:23;;;;;;;0.20;0.20;;;23.20;99.90;;;;;;4899688;29;20215;-74
2021/06/25 17:36:51;;;;;;;0.20;0.20;;;23.10;99.90;;;;;;4899354;29;20650;-76
2021/06/25 17:39:19;;;;;;;0.20;0.20;;;;;;;;;;4905227;29;20256;-77
2021/06/25 17:41:47;;;;;;;0.30;0.30;;;22.90;99.90;;;;;;4909312;29;20279;-77
2021/06/25 17:44:15;;;;;;;0.20;0.20;;;22.60;99.90;;;;;;4899093;29;20630;-78
2021/06/25 17:46:43;;;;;;;0.20;0.20;;;22.70;99.90;;;;;;4897856;29;20231;-77
2021/06/25 17:49:11;;;;;;;0.30;0.30;;;22.40;99.90;;;;;;4897571;29;20271;-77
2021/06/25 17:51:40;;;;;;;0.30;0.30;;;22.60;99.90;;;;;;4897753;29;20204;-76
2021/06/25 17:54:08;;;;;;;0.20;0.20;;;22.60;99.90;;;;;;4903659;29;20215;-75
2021/06/25 17:56:36;;;;;;;0.20;0.20;;;22.50;99.90;;;;;;4905164;29;20227;-76
2021/06/25 17:59:06;;;;;;;0.30;0.30;;;22.40;99.90;;;;;;4903442;29;20275;-76
2021/06/25 18:01:34;;;;;;;0.20;0.20;;;22.30;99.90;;;;;;4901920;29;20596;-76
2021/06/25 18:04:02;;;;;;;0.20;0.20;;;22.20;99.90;;;;;;4899340;29;20259;-78
2021/06/25 18:06:32;;;;;;;0.30;0.30;;;22.20;99.90;;;;;;4900529;29;20282;-77
2021/06/25 18:09:01;;;;;;;0.30;0.30;;;22.20;99.90;;;;;;4917554;29;20198;-76
2021/06/25 18:11:30;;;;;;;0.20;0.20;;;22.10;99.90;;;;;;4916419;29;20660;-75
2021/06/25 18:13:59;;;;;;;0.30;0.30;;;22.20;99.90;;;;;;4922166;29;20203;-77
2021/06/25 18:16:26;;;;;;;0.30;0.30;;;22.00;99.90;;;;;;4927398;29;20230;-78
2021/06/25 18:18:54;;;;;;;0.30;0.30;;;21.80;99.90;;;;;;4929229;29;20202;-78
2021/06/25 18:21:22;;;;;;;0.30;0.30;;;21.70;99.90;;;;;;4921958;29;20280;-76
2021/06/25 18:23:50;;;;;;;0.28;0.28;;;21.70;99.90;;;;;;4915739;29;20210;-75
2021/06/25 18:26:19;;;;;;;0.30;0.30;;;21.60;99.90;;;;;;4915716;29;20298;-76
2021/06/25 18:28:47;;;;;;;0.30;0.30;;;21.50;99.90;;;;;;4915638;29;20217;-76
2021/06/25 18:31:17;;;;;;;0.30;0.30;;;21.50;99.90;;;;;;4915944;29;20199;-76
2021/06/25 18:33:45;;;;;;;0.30;0.30;;;21.30;99.90;;;;;;4915706;29;21143;-76
2021/06/25 18:36:13;;;;;;;0.20;0.20;;;21.30;99.90;;;;;;4915364;29;20230;-77
2021/06/25 18:38:41;;;;;;;0.20;0.20;;;21.20;99.90;;;;;;4915678;29;20664;-77
2021/06/25 18:41:09;;;;;;;0.20;0.20;;;21.20;99.90;;;;;;4915504;29;20226;-76
2021/06/25 18:43:38;;;;;;;0.20;0.20;;;21.10;99.90;;;;;;4915877;29;20258;-76
2021/06/25 18:46:06;;;;;;;0.30;0.30;;;21.10;99.90;;;;;;4915626;29;20223;-76
2021/06/25 18:48:35;;;;;;;0.30;0.30;;;21.10;99.90;;;;;;4915662;29;20735;-76
2021/06/25 18:51:04;;;;;;;0.30;0.30;;;21.10;99.90;;;;;;4915630;29;20668;-76
2021/06/25 18:53:32;;;;;;;0.30;0.30;;;21.20;99.90;;;;;;4908038;29;20716;-76
2021/06/25 18:56:00;;;;;;;0.30;0.30;;;21.20;99.90;;;;;;4897797;29;20227;-77
2021/06/25 18:58:30;;;;;;;0.20;0.20;;;21.20;99.90;;;;;;4896894;29;20278;-76
2021/06/25 19:01:02;;;;;;;0.22;0.22;;;21.20;99.90;;;;;;4896541;29;20231;-76
2021/06/25 19:03:29;;;;;;;0.30;0.30;;;21.10;99.90;;;;;;4896856;29;20259;-76
2021/06/25 19:05:58;;;;;;;0.30;0.30;;;20.80;99.90;;;;;;4896594;29;20228;-76
2021/06/25 19:08:26;;;;;;;0.30;0.30;;;20.80;99.90;;;;;;4896798;29;20215;-76
2021/06/25 19:10:54;;;;;;;0.30;0.30;;;20.70;99.90;;;;;;4896414;29;20199;-76
2021/06/25 19:13:25;;;;;;;0.30;0.30;;;20.50;99.90;;;;;;4896922;29;20246;-76
2021/06/25 19:15:53;;;;;;;0.30;0.30;;;20.40;99.90;;;;;;4896272;29;20290;-76
2021/06/25 19:18:22;;;;;;;0.30;0.30;;;20.40;99.90;;;;;;4896775;29;20290;-75
2021/06/25 19:20:50;;;;;;;0.30;0.30;;;20.40;99.90;;;;;;4896280;29;20263;-76
2021/06/25 19:23:18;;;;;;;0.30;0.30;;;20.40;99.90;;;;;;4896830;29;20207;-76
2021/06/25 19:25:46;;;;;;;0.30;0.30;;;20.30;99.90;;;;;;4896472;29;20231;-76
2021/06/25 19:28:14;;;;;;;0.30;0.30;;;20.40;99.90;;;;;;4899297;29;20614;-76
2021/06/25 19:30:44;;;;;;;0.30;0.30;;;20.30;99.90;;;;;;4900098;29;20279;-76
2021/06/25 19:33:13;;;;;;;0.30;0.30;;;20.10;99.90;;;;;;4899964;29;20192;-76
2021/06/25 19:35:42;;;;;;;0.30;0.30;;;20.30;99.90;;;;;;4899553;29;20228;-77
2021/06/25 19:38:10;;;;;;;0.30;0.30;;;20.30;99.90;;;;;;4899873;29;20207;-76
2021/06/25 19:40:41;;;;;;;0.30;0.30;;;20.30;99.90;;;;;;4904669;29;20234;-77
2021/06/25 19:43:10;;;;;;;0.30;0.30;;;20.30;99.90;;;;;;4909479;29;20266;-77
2021/06/25 19:45:37;;;;;;;0.30;0.30;;;20.70;99.90;;;;;;4904942;29;20269;-76
2021/06/25 19:48:07;;;;;;;0.30;0.30;;;20.50;99.90;;;;;;4907854;29;20289;-76
2021/06/25 19:50:35;;;;;;;0.30;0.30;;;20.40;99.90;;;;;;4912804;29;20210;-76
2021/06/25 19:53:05;;;;;;;0.30;0.30;;;20.50;99.90;;;;;;4912875;29;20199;-77
2021/06/25 19:55:33;;;;;;;0.30;0.30;;;20.40;99.90;;;;;;4903897;29;20218;-77
2021/06/25 19:58:01;;;;;;;0.30;0.30;;;20.40;99.90;;;;;;4916300;29;20261;-77
2021/06/25 20:00:29;;;;;;;0.30;0.30;;;20.40;99.90;;;;;;4907845;29;20202;-78
2021/06/25 20:02:58;;;;;;;0.30;0.30;;;20.30;99.90;;;;;;4903789;29;20247;-77
2021/06/25 20:05:25;;;;;;;0.30;0.30;;;20.00;99.90;;;;;;4907047;29;20212;-76
2021/06/25 20:07:53;;;;;;;0.30;0.30;;;20.30;99.90;;;;;;4899110;29;20207;-77
2021/06/25 20:10:23;;;;;;;0.30;0.30;;;20.30;99.90;;;;;;4912152;29;20231;-76
2021/06/25 20:12:51;;;;;;;0.40;0.40;;;20.20;99.90;;;;;;4903636;29;20207;-77
2021/06/25 20:15:19;;;;;;;0.30;0.30;;;20.80;99.90;;;;;;4912299;29;20195;-77
2021/06/25 20:17:49;;;;;;;0.30;0.30;;;20.30;99.90;;;;;;4915527;29;20663;-76
2021/06/25 20:20:17;;;;;;;0.30;0.30;;;20.20;99.90;;;;;;4908306;29;20203;-77
2021/06/25 20:22:46;;;;;;;0.30;0.30;;;20.10;99.90;;;;;;4915841;29;20771;-76
2021/06/25 20:25:14;;;;;;;0.30;0.30;;;20.10;99.90;;;;;;4898166;29;20672;-77
2021/06/25 20:27:44;;;;;;;0.30;0.30;;;20.10;99.90;;;;;;4897338;29;20200;-77
2021/06/25 20:30:14;;;;;;;0.30;0.30;;;20.20;99.90;;;;;;4897344;29;20207;-77
2021/06/25 20:32:42;;;;;;;0.30;0.30;;;20.20;99.90;;;;;;4897607;29;20203;-76
2021/06/25 20:35:11;;;;;;;0.30;0.30;;;20.20;99.90;;;;;;4897761;29;20273;-77
2021/06/25 20:37:39;;;;;;;0.40;0.40;;;20.20;99.90;;;;;;4898529;29;20207;-76
2021/06/25 20:40:08;;;;;;;0.30;0.30;;;20.20;99.90;;;;;;4899141;29;20570;-77
2021/06/25 20:42:36;;;;;;;0.30;0.30;;;20.00;99.90;;;;;;4898989;29;20278;-77
2021/06/25 20:45:08;;;;;;;0.40;0.40;;;20.10;99.90;;;;;;4898930;29;20242;-77
2021/06/25 20:47:36;;;;;;;0.30;0.30;;;20.10;99.90;;;;;;4904343;29;20252;-77
2021/06/25 20:50:06;;;;;;;0.30;0.30;;;20.20;99.90;;;;;;4936317;29;20217;-77
2021/06/25 20:52:34;;;;;;;0.30;0.30;;;20.20;99.90;;;;;;4935851;29;20664;-77
2021/06/25 20:55:03;;;;;;;0.30;0.30;;;20.20;99.90;;;;;;4935562;29;20672;-77
2021/06/25 20:57:31;;;;;;;0.30;0.30;;;20.20;99.90;;;;;;4935425;29;20645;-77
2021/06/25 20:59:59;;;;;;;0.30;0.30;;;20.10;99.90;;;;;;4935773;29;20253;-76
